Tad, West Virginia
Current Conditions -  °F | °C
As of 9:54 AM on Friday 19 Dec 2014 (Local Time) from KCRW Reporting Station
Overcast Overcast  
Wind Chill: 29°   Ceiling: 2200
Heat Index: 29°   Visibility: 8mi
Dew Point: 22°   Wind: 3mph
Humidity: 75%   Direction: NA
Pressure: 30.28"   Gusts: NA
Location:  38.33°N, 81.49°W
Report Text: KCRW 191454Z VRB03KT 8SM SCT017 OVC022 M02/M06 A3028 RMK AO2 SLP262 T10171056 51012
Loading
Personal Weather Stations






























Interactive Weather Map New forecast layout! Learn more

10-Day Weather Forecast

Advertisements
Track Severe Weather on mobile